Dati Storici

Data ora Umidita' aria (%) Temperatura aria (°C) Rad globale (W/m²) Gonioanemometro (°) Tacoanemometro (m/s) Pioggia (mm)
28-06-2020 22:50 73.7 % 26.195 196.671 0.603 0 0
28-06-2020 22:40 73.6 % 26.226 106.36 1.161 0 0
28-06-2020 22:30 73.1 % 26.282 160.448 1.527 0 0
28-06-2020 22:20 71.8 % 26.437 207.225 1.893 0 0
28-06-2020 22:10 69.7 % 26.669 165.645 1.289 0 0
28-06-2020 22:00 67.8 % 26.841 165.658 0.86 0 0
28-06-2020 21:50 66.3 % 26.94 105.676 1.193 0 0
28-06-2020 21:40 66.4 % 27.09 168.013 0.871 0 0
28-06-2020 21:30 71.1 % 27.163 198.929 2.434 0 0
28-06-2020 21:20 76.1 % 26.975 171.448 -0.036 0 0
28-06-2020 21:10 76.5 % 26.779 96.705 0.337 0 0
28-06-2020 21:00 73.5 % 27.025 107.029 0.609 0 0
28-06-2020 20:50 71.1 % 27.311 148.337 1.495 0 0
28-06-2020 20:40 68.4 % 27.459 140.913 1.59 0 0
28-06-2020 20:30 67.2 % 27.494 181.758 -0.034 0 0
28-06-2020 20:20 67.6 % 27.313 198.437 1.253 0 0
28-06-2020 20:10 67.8 % 27.417 118.922 -0.039 0 0
28-06-2020 20:00 66.7 % 27.549 145.878 -0.038 0 0
28-06-2020 19:50 64 % 27.761 103.684 0.654 0 0
28-06-2020 19:40 61.6 % 27.957 113.765 1.1 0 0

I dati sono presentati in modo automatico a scopo informativo. In seguito a verifica i dati possono subire modifiche o essere invalidati e non riportati negli archivi definitivi.